KBJI/BJI METAR and TAF weather

Enter ICAO airport designator
Station Type Date Time Source
KBJI METAR 2022/06/27 07:55 UTC NOAA

KBJI 270755Z AUTO 00000KT 10SM CLR 10/10 A3020 RMK AO2 T00960096


Station Type Date Time Source
KBJI Decoded METAR 2022/06/27 07:55 UTC NOAA

Bemidji, MN, United States (KBJI) 47-30N 094-56W 420M
Jun 27, 2022 - 03:55 AM EDT / 2022.06.27 0755 UTC
Wind: Calm:0
Visibility: 10 mile(s):0
Sky conditions: clear
Temperature: 49.3 F (9.6 C)
Dew Point: 49.3 F (9.6 C)
Relative Humidity: 100%
Pressure (altimeter): 30.2 in. Hg (1022 hPa)
ob: KBJI 270755Z AUTO 00000KT 10SM CLR 10/10 A3020 RMK AO2 T00960096
cycle: 8

Station Type Date Time Source
KBJI TAF 2022/06/27 06:22 UTC NOAA

TAF KBJI 270520Z 2706/2806 VRB03KT P6SM FEW250
FM271600 25007KT P6SM SKC
FM272000 26009KT P6SM FEW250
FM280200 24005KT P6SM FEW250

Example: see airport list